Time;durP1;ratioP1;P1;durP2;ratioP2;P2;SDS_P1;SDS_P2;PMS_P1;PMS_P2;Temp;Humidity;BMP_temperature;BMP_pressure;BME280_temperature;BME280_humidity;BME280_pressure;Samples;Min_cycle;Max_cycle;Signal;HPM_P1;HPM_P2
2023/09/12 00:01:06;;;;;;;48.22;42.92;;;19.20;99.90;;;;;;5043080;28;20037;-45
2023/09/12 00:03:32;;;;;;;53.17;43.40;;;19.20;99.90;;;;;;5040337;28;20604;-46
2023/09/12 00:05:59;;;;;;;44.58;39.75;;;19.20;99.90;;;;;;5008076;28;20122;-45
2023/09/12 00:08:25;;;;;;;47.05;42.13;;;19.10;99.90;;;;;;5008393;28;20045;-47
2023/09/12 00:11:06;;;;;;;57.13;44.33;;;19.10;99.90;;;;;;5044874;28;20052;-46
2023/09/12 00:13:32;;;;;;;51.42;42.60;;;19.10;99.90;;;;;;5043064;28;20041;-46
2023/09/12 00:15:58;;;;;;;43.50;38.92;;;19.00;99.90;;;;;;5023919;28;20118;-47
2023/09/12 00:18:24;;;;;;;44.60;40.13;;;19.00;99.90;;;;;;5042514;28;20075;-45
2023/09/12 00:20:50;;;;;;;42.53;38.15;;;19.00;99.90;;;;;;5023914;28;20151;-45
2023/09/12 00:23:16;;;;;;;43.35;38.85;;;19.00;99.90;;;;;;5007404;28;20077;-48
2023/09/12 00:25:42;;;;;;;44.20;38.80;;;19.00;99.90;;;;;;5023175;28;20127;-46
2023/09/12 00:28:07;;;;;;;45.97;40.63;;;19.00;99.90;;;;;;5042298;28;20413;-47
2023/09/12 00:30:33;;;;;;;45.10;40.50;;;18.90;99.90;;;;;;5041606;28;20044;-47
2023/09/12 00:32:58;;;;;;;48.10;42.80;;;18.90;99.90;;;;;;5041337;28;20395;-45
2023/09/12 00:35:24;;;;;;;43.28;38.65;;;18.90;99.90;;;;;;5023738;28;20052;-47
2023/09/12 00:37:50;;;;;;;42.30;38.10;;;18.80;99.90;;;;;;5041827;28;20584;-45
2023/09/12 00:40:15;;;;;;;41.42;37.03;;;18.80;99.90;;;;;;5024221;28;20562;-47
2023/09/12 00:42:41;;;;;;;44.13;39.45;;;18.80;99.90;;;;;;5041828;28;20128;-45
2023/09/12 00:45:07;;;;;;;44.88;39.95;;;18.70;99.90;;;;;;5023898;28;20102;-44
2023/09/12 00:47:33;;;;;;;40.70;36.75;;;18.70;99.90;;;;;;5036267;28;20037;-43
2023/09/12 00:49:59;;;;;;;45.55;39.90;;;18.70;99.90;;;;;;5042396;28;20381;-46
2023/09/12 00:52:27;;;;;;;42.90;38.30;;;18.70;99.90;;;;;;5041774;28;20439;-47
2023/09/12 00:54:54;;;;;;;45.30;39.85;;;18.70;99.90;;;;;;5023525;28;20041;-45
2023/09/12 00:57:21;;;;;;;43.70;39.22;;;18.70;99.90;;;;;;5041751;28;20076;-48
2023/09/12 00:59:49;;;;;;;42.25;37.70;;;18.70;99.90;;;;;;5024021;28;20049;-43
2023/09/12 01:02:18;;;;;;;55.92;43.50;;;18.70;99.90;;;;;;5041761;28;20376;-47
2023/09/12 01:04:44;;;;;;;43.35;38.78;;;18.80;99.90;;;;;;5041203;28;20052;-45
2023/09/12 01:07:10;;;;;;;40.13;35.90;;;18.80;99.90;;;;;;5023809;28;20037;-46
2023/09/12 01:09:35;;;;;;;42.13;37.92;;;18.80;99.90;;;;;;5041398;28;20420;-44
2023/09/12 01:12:04;;;;;;;42.42;37.83;;;18.80;99.90;;;;;;5041419;28;20060;-44
2023/09/12 01:14:30;;;;;;;53.65;42.70;;;18.70;99.90;;;;;;5023017;28;20491;-45
2023/09/12 01:16:57;;;;;;;49.00;42.63;;;18.70;99.90;;;;;;5042000;28;20119;-45
2023/09/12 01:19:23;;;;;;;43.13;38.72;;;18.70;99.90;;;;;;5041464;28;20136;-46
2023/09/12 01:22:07;;;;;;;44.83;40.08;;;18.70;99.90;;;;;;5006795;28;20044;-46
2023/09/12 01:24:54;;;;;;;54.72;43.78;;;18.60;99.90;;;;;;5040988;28;20045;-45
2023/09/12 01:27:30;;;;;;;44.38;38.80;;;18.50;99.90;;;;;;5023157;28;20964;-46
2023/09/12 01:30:03;;;;;;;41.20;36.20;;;18.50;99.90;;;;;;5041396;28;20108;-47
2023/09/12 01:32:31;;;;;;;32.72;29.33;;;18.40;99.90;;;;;;5041146;28;20037;-47
2023/09/12 01:34:56;;;;;;;35.55;31.77;;;18.40;99.90;;;;;;5041162;28;20071;-48
2023/09/12 01:37:22;;;;;;;37.25;32.25;;;18.30;99.90;;;;;;5007469;28;20575;-44
2023/09/12 01:39:48;;;;;;;35.03;31.38;;;18.30;99.90;;;;;;5041702;28;20067;-45
2023/09/12 01:42:16;;;;;;;32.50;28.60;;;18.20;99.90;;;;;;5041105;28;20045;-47
2023/09/12 01:44:44;;;;;;;38.95;34.85;;;18.20;99.90;;;;;;5023941;28;20118;-45
2023/09/12 01:47:11;;;;;;;36.28;32.72;;;18.20;99.90;;;;;;5042237;28;20045;-44
2023/09/12 01:49:41;;;;;;;36.97;33.13;;;18.00;99.90;;;;;;5027213;28;20507;-46
2023/09/12 01:52:07;;;;;;;35.63;32.03;;;18.00;99.90;;;;;;5031922;28;20055;-44
2023/09/12 01:54:34;;;;;;;36.35;32.47;;;18.00;99.90;;;;;;5026862;28;20586;-47
2023/09/12 01:57:01;;;;;;;34.63;30.85;;;17.90;99.90;;;;;;5027498;28;20127;-43
2023/09/12 01:59:28;;;;;;;32.83;29.55;;;17.80;99.90;;;;;;5027364;28;20095;-47
2023/09/12 02:01:53;;;;;;;41.58;33.55;;;17.80;99.90;;;;;;5044294;28;20045;-46
2023/09/12 02:04:19;;;;;;;37.65;32.47;;;17.80;99.90;;;;;;5025801;28;20068;-47
2023/09/12 02:06:44;;;;;;;37.15;31.13;;;17.70;99.90;;;;;;5030268;28;20041;-44
2023/09/12 02:09:10;;;;;;;43.70;33.10;;;17.70;99.90;;;;;;5044931;28;20045;-45
2023/09/12 02:11:36;;;;;;;36.75;30.30;;;17.70;99.90;;;;;;5026369;28;20049;-45
2023/09/12 02:14:02;;;;;;;33.38;28.70;;;17.70;99.90;;;;;;5044516;28;20041;-48
2023/09/12 02:16:29;;;;;;;75.25;32.65;;;17.60;99.90;;;;;;5041294;28;20053;-46
2023/09/12 02:18:54;;;;;;;151.82;34.92;;;17.70;99.90;;;;;;5038048;28;20373;-44
2023/09/12 02:21:20;;;;;;;280.42;39.88;;;17.70;99.90;;;;;;5044303;28;20079;-45
2023/09/12 02:23:45;;;;;;;227.50;38.42;;;17.70;99.90;;;;;;5025857;28;20041;-48
2023/09/12 02:26:11;;;;;;;205.90;37.50;;;17.60;99.90;;;;;;5044603;28;20508;-45
2023/09/12 02:28:37;;;;;;;340.45;43.50;;;17.50;99.90;;;;;;5044939;28;20045;-47
2023/09/12 02:31:02;;;;;;;112.15;31.15;;;17.40;99.90;;;;;;5044173;28;20040;-45
2023/09/12 02:33:28;;;;;;;96.47;31.38;;;17.50;99.90;;;;;;5043759;28;20037;-45
2023/09/12 02:35:53;;;;;;;123.60;31.25;;;17.40;99.90;;;;;;5025995;28;20350;-44
2023/09/12 02:38:19;;;;;;;78.57;29.63;;;17.40;99.90;;;;;;5044631;28;20064;-44
2023/09/12 02:40:44;;;;;;;91.95;29.48;;;17.30;99.90;;;;;;5044345;28;20044;-46
2023/09/12 02:43:10;;;;;;;102.05;27.13;;;17.30;99.90;;;;;;5026030;28;20045;-46
2023/09/12 02:45:35;;;;;;;75.05;26.98;;;17.20;99.90;;;;;;5043447;28;20044;-47
2023/09/12 02:48:01;;;;;;;49.10;28.35;;;17.20;99.90;;;;;;5040842;28;20689;-47
2023/09/12 02:50:27;;;;;;;79.63;30.83;;;17.30;99.90;;;;;;5025949;28;20072;-44
2023/09/12 02:52:52;;;;;;;102.78;30.20;;;17.20;99.90;;;;;;5043962;28;20080;-46
2023/09/12 02:55:18;;;;;;;80.63;32.55;;;17.30;99.90;;;;;;5009109;28;20052;-47
2023/09/12 02:57:44;;;;;;;77.38;32.80;;;17.30;99.90;;;;;;5044124;28;20044;-47
2023/09/12 03:00:11;;;;;;;181.30;39.08;;;17.30;99.90;;;;;;5025814;28;20049;-45
2023/09/12 03:02:36;;;;;;;150.50;36.70;;;17.40;99.90;;;;;;5025102;28;20049;-47
2023/09/12 03:05:02;;;;;;;188.52;38.10;;;17.30;99.90;;;;;;5025154;28;20056;-47
2023/09/12 03:07:29;;;;;;;222.95;39.92;;;17.30;99.90;;;;;;5025382;28;20420;-46
2023/09/12 03:09:55;;;;;;;213.65;43.25;;;17.30;99.90;;;;;;5043733;28;20055;-43
2023/09/12 03:12:20;;;;;;;138.75;38.78;;;17.20;99.90;;;;;;5042969;28;20045;-47
2023/09/12 03:14:46;;;;;;;168.68;40.38;;;17.20;99.90;;;;;;5043287;28;20550;-43
2023/09/12 03:17:11;;;;;;;118.05;39.35;;;17.20;99.90;;;;;;5016585;28;20048;-45
2023/09/12 03:19:37;;;;;;;116.05;38.63;;;17.30;99.90;;;;;;5026328;28;20083;-48
2023/09/12 03:22:03;;;;;;;95.72;38.38;;;17.20;99.90;;;;;;5025319;28;20136;-43
2023/09/12 03:24:29;;;;;;;91.95;39.33;;;17.20;99.90;;;;;;5043118;28;20040;-45
2023/09/12 03:26:54;;;;;;;148.98;44.17;;;17.20;99.90;;;;;;5009162;28;20114;-46
2023/09/12 03:29:20;;;;;;;126.40;43.92;;;17.20;99.90;;;;;;5025361;28;20207;-45
2023/09/12 03:31:46;;;;;;;130.10;45.03;;;17.30;99.90;;;;;;5042901;28;20116;-48
2023/09/12 03:34:11;;;;;;;209.25;49.33;;;17.30;99.90;;;;;;5024979;28;20105;-44
2023/09/12 03:36:37;;;;;;;152.15;48.65;;;17.30;99.90;;;;;;5043200;28;20055;-45
2023/09/12 03:39:05;;;;;;;212.15;52.45;;;17.40;99.90;;;;;;5043013;28;20098;-45
2023/09/12 03:41:31;;;;;;;99.85;48.33;;;17.30;99.90;;;;;;5042582;28;20049;-45
2023/09/12 03:43:57;;;;;;;380.55;60.35;;;17.40;99.90;;;;;;5024759;28;20045;-46
2023/09/12 03:46:22;;;;;;;418.00;63.20;;;17.40;99.90;;;;;;5022381;28;20363;-44
2023/09/12 03:48:48;;;;;;;306.90;59.50;;;17.50;99.90;;;;;;5042957;28;20106;-45
2023/09/12 03:51:14;;;;;;;531.60;71.20;;;17.50;99.90;;;;;;5042745;28;20041;-47
2023/09/12 03:53:39;;;;;;;212.27;55.63;;;17.50;99.90;;;;;;5042112;28;20037;-46
2023/09/12 03:56:06;;;;;;;338.38;61.45;;;17.60;99.90;;;;;;5042894;28;20344;-47
2023/09/12 03:58:31;;;;;;;298.35;60.83;;;17.60;99.90;;;;;;5042667;28;20055;-44
2023/09/12 04:00:57;;;;;;;216.63;59.83;;;17.60;99.90;;;;;;5042875;28;20074;-45
2023/09/12 04:03:22;;;;;;;255.50;61.20;;;17.70;99.90;;;;;;5034714;28;20036;-43
2023/09/12 04:05:49;;;;;;;234.40;58.70;;;17.60;99.90;;;;;;5024319;28;20120;-45
2023/09/12 04:08:15;;;;;;;159.90;57.80;;;17.70;99.90;;;;;;5041924;28;20053;-46
2023/09/12 04:10:41;;;;;;;154.57;59.25;;;17.70;99.90;;;;;;5042832;28;20057;-44
2023/09/12 04:13:06;;;;;;;224.52;68.38;;;17.70;99.90;;;;;;5041786;28;20119;-45
2023/09/12 04:15:32;;;;;;;113.97;62.70;;;17.70;99.90;;;;;;5042310;28;20049;-44
2023/09/12 04:17:58;;;;;;;113.70;69.55;;;17.70;99.90;;;;;;5032409;28;20437;-43
2023/09/12 04:20:23;;;;;;;144.45;71.43;;;17.70;99.90;;;;;;5042659;28;20067;-48
2023/09/12 04:22:49;;;;;;;116.93;68.05;;;17.70;99.90;;;;;;5023450;28;20045;-47
2023/09/12 04:25:14;;;;;;;88.57;61.78;;;17.70;99.90;;;;;;5042074;28;20521;-46
2023/09/12 04:27:42;;;;;;;108.78;66.90;;;17.70;99.90;;;;;;5042485;28;20575;-46
2023/09/12 04:30:08;;;;;;;98.90;64.78;;;17.70;99.90;;;;;;5024162;28;20114;-43
2023/09/12 04:32:34;;;;;;;126.60;65.45;;;17.70;99.90;;;;;;5023648;28;20079;-44
2023/09/12 04:35:00;;;;;;;164.32;67.40;;;17.70;99.90;;;;;;5042084;28;20065;-46
2023/09/12 04:37:25;;;;;;;88.75;59.65;;;17.60;99.90;;;;;;5024057;28;20543;-46
2023/09/12 04:39:51;;;;;;;84.28;59.78;;;17.60;99.90;;;;;;5008246;28;20131;-47
2023/09/12 04:42:17;;;;;;;110.10;65.07;;;17.50;99.90;;;;;;5023679;28;20452;-44
2023/09/12 04:44:43;;;;;;;121.10;64.80;;;17.50;99.90;;;;;;5023696;28;20049;-47
2023/09/12 04:47:09;;;;;;;103.05;61.70;;;17.30;99.90;;;;;;5039929;28;20045;-45
2023/09/12 04:49:35;;;;;;;111.15;65.85;;;17.40;99.90;;;;;;5042701;28;20518;-47
2023/09/12 04:52:00;;;;;;;222.30;68.88;;;17.30;99.90;;;;;;5023581;28;20416;-45
2023/09/12 04:54:26;;;;;;;97.45;62.35;;;17.30;99.90;;;;;;5041873;28;20098;-45
2023/09/12 04:56:51;;;;;;;129.07;63.20;;;17.30;99.90;;;;;;5041864;28;20122;-47
2023/09/12 04:59:17;;;;;;;138.55;62.83;;;17.30;99.90;;;;;;5042057;28;20682;-43
2023/09/12 05:01:43;;;;;;;212.85;68.68;;;17.30;99.90;;;;;;5041699;28;20442;-44
2023/09/12 05:04:09;;;;;;;158.38;65.78;;;17.40;99.90;;;;;;5041808;28;20049;-47
2023/09/12 05:06:35;;;;;;;201.90;68.20;;;17.40;99.90;;;;;;5007377;28;20313;-45
2023/09/12 05:09:00;;;;;;;215.05;67.97;;;17.40;99.90;;;;;;5023940;28;20056;-46
2023/09/12 05:11:26;;;;;;;118.40;63.67;;;17.40;99.90;;;;;;5041501;28;20047;-45
2023/09/12 05:13:52;;;;;;;272.70;72.00;;;17.50;99.90;;;;;;5041368;28;20037;-44
2023/09/12 05:16:18;;;;;;;184.82;64.88;;;17.50;99.90;;;;;;5040103;28;20047;-47
2023/09/12 05:18:43;;;;;;;236.95;73.72;;;17.60;99.90;;;;;;5015573;28;20466;-46
2023/09/12 05:21:09;;;;;;;155.13;69.93;;;17.50;99.90;;;;;;5027076;28;20265;-45
2023/09/12 05:23:35;;;;;;;182.40;73.40;;;17.50;99.90;;;;;;5045147;28;20041;-43
2023/09/12 05:26:01;;;;;;;170.68;72.30;;;17.50;99.90;;;;;;5045473;28;20043;-46
2023/09/12 05:28:26;;;;;;;240.85;76.85;;;17.60;99.90;;;;;;5046069;28;20455;-47
2023/09/12 05:30:53;;;;;;;216.70;75.50;;;17.50;99.90;;;;;;5045497;28;20431;-45
2023/09/12 05:33:18;;;;;;;168.43;72.93;;;17.60;99.90;;;;;;5044911;28;20132;-43
2023/09/12 05:35:44;;;;;;;131.05;72.38;;;17.60;99.90;;;;;;5045464;28;20112;-43
2023/09/12 05:38:10;;;;;;;187.52;72.70;;;17.70;99.90;;;;;;5045489;28;20047;-47
2023/09/12 05:40:36;;;;;;;185.75;76.88;;;17.80;99.90;;;;;;5044989;28;20048;-45
2023/09/12 05:43:01;;;;;;;168.13;75.53;;;17.70;99.90;;;;;;5044391;28;20033;-43
2023/09/12 05:45:32;;;;;;;141.85;71.68;;;17.80;99.90;;;;;;5027478;28;20466;-46
2023/09/12 05:47:58;;;;;;;154.30;75.65;;;17.80;99.90;;;;;;5007660;28;20140;-46
2023/09/12 05:50:24;;;;;;;138.43;74.28;;;17.90;99.90;;;;;;5027068;28;20116;-46
2023/09/12 05:52:50;;;;;;;161.30;77.38;;;17.90;99.90;;;;;;5026931;28;20124;-44
2023/09/12 05:55:17;;;;;;;150.48;76.43;;;17.90;99.90;;;;;;5026470;28;20063;-45
2023/09/12 05:57:43;;;;;;;133.93;70.97;;;18.00;99.90;;;;;;5044822;28;20174;-45
2023/09/12 06:00:11;;;;;;;105.07;66.32;;;18.10;99.90;;;;;;5044828;28;20060;-43
2023/09/12 06:02:39;;;;;;;93.97;66.05;;;18.10;99.90;;;;;;5027329;28;20033;-43
2023/09/12 06:05:06;;;;;;;121.90;66.68;;;18.10;99.90;;;;;;5044766;28;20052;-47
2023/09/12 06:07:32;;;;;;;144.77;67.65;;;18.00;99.90;;;;;;5045186;28;20041;-44
2023/09/12 06:09:58;;;;;;;125.28;70.10;;;18.00;99.90;;;;;;5044407;28;20079;-43
2023/09/12 06:12:24;;;;;;;142.30;72.50;;;18.10;99.90;;;;;;5044746;28;20608;-43
2023/09/12 06:14:49;;;;;;;124.72;70.95;;;18.00;99.90;;;;;;5025819;28;20377;-48
2023/09/12 06:17:15;;;;;;;122.03;70.05;;;18.00;99.90;;;;;;5042110;28;20044;-43
2023/09/12 06:19:40;;;;;;;133.73;70.07;;;18.00;99.90;;;;;;5052665;28;20051;-44
2023/09/12 06:22:06;;;;;;;120.10;67.35;;;18.00;99.90;;;;;;5025601;28;20464;-47
2023/09/12 06:24:32;;;;;;;119.35;65.53;;;18.00;99.90;;;;;;5043909;28;20041;-45
2023/09/12 06:26:57;;;;;;;140.65;68.63;;;18.10;99.90;;;;;;5026247;28;20583;-46
2023/09/12 06:29:23;;;;;;;181.48;73.07;;;18.00;99.90;;;;;;5026327;28;20045;-45
2023/09/12 06:31:48;;;;;;;146.32;70.05;;;18.00;99.90;;;;;;5043018;28;20048;-45
2023/09/12 06:34:14;;;;;;;124.53;70.47;;;18.00;99.90;;;;;;5049102;28;20354;-47
2023/09/12 06:36:43;;;;;;;140.98;70.18;;;18.00;99.90;;;;;;5052947;28;20406;-45
2023/09/12 06:39:08;;;;;;;121.32;65.82;;;18.00;99.90;;;;;;5055966;28;20051;-44
2023/09/12 06:41:34;;;;;;;106.40;67.50;;;18.10;99.90;;;;;;5054165;28;20028;-45
2023/09/12 06:43:59;;;;;;;135.95;70.88;;;18.20;99.90;;;;;;5052196;28;20561;-45
2023/09/12 06:46:26;;;;;;;139.55;69.07;;;18.20;99.90;;;;;;5053086;28;20372;-43
2023/09/12 06:48:52;;;;;;;124.95;67.00;;;18.20;99.90;;;;;;5053448;28;20033;-45
2023/09/12 06:51:17;;;;;;;126.72;66.55;;;18.30;99.90;;;;;;5051769;28;20561;-47
2023/09/12 06:53:43;;;;;;;116.50;67.30;;;18.20;99.90;;;;;;5051840;28;20124;-46
2023/09/12 06:56:09;;;;;;;113.10;66.57;;;18.30;99.90;;;;;;5034557;28;20071;-46
2023/09/12 06:58:35;;;;;;;120.25;67.15;;;18.30;99.90;;;;;;5049835;28;20044;-45
2023/09/12 07:01:05;;;;;;;109.95;67.78;;;18.30;99.90;;;;;;5052459;28;20040;-44
2023/09/12 07:03:31;;;;;;;110.47;65.50;;;18.40;99.90;;;;;;5050923;28;20037;-47
2023/09/12 07:05:57;;;;;;;116.82;66.20;;;18.40;99.90;;;;;;5037579;28;20048;-47
2023/09/12 07:08:23;;;;;;;118.55;67.68;;;18.40;99.90;;;;;;5050332;28;20378;-45
2023/09/12 07:10:48;;;;;;;104.88;67.30;;;18.40;99.90;;;;;;5053099;28;20071;-47
2023/09/12 07:13:14;;;;;;;121.30;69.15;;;18.40;99.90;;;;;;5051420;28;20090;-47
2023/09/12 07:15:40;;;;;;;105.68;67.82;;;18.40;99.90;;;;;;5053589;28;20036;-47
2023/09/12 07:18:06;;;;;;;99.20;65.30;;;18.50;99.90;;;;;;5032430;28;20044;-45
2023/09/12 07:20:33;;;;;;;113.18;70.93;;;18.50;99.90;;;;;;5050490;28;20219;-46
2023/09/12 07:22:59;;;;;;;105.10;69.35;;;18.50;99.90;;;;;;5051451;28;20132;-43
2023/09/12 07:25:24;;;;;;;108.47;70.53;;;18.50;99.90;;;;;;5034643;28;20052;-44
2023/09/12 07:27:50;;;;;;;116.28;71.63;;;18.60;99.90;;;;;;5044433;28;20041;-44
2023/09/12 07:30:16;;;;;;;112.43;72.50;;;18.50;99.90;;;;;;5043432;28;20040;-46
2023/09/12 07:32:42;;;;;;;115.50;73.47;;;18.60;99.90;;;;;;5024407;28;20555;-47
2023/09/12 07:35:08;;;;;;;117.05;72.93;;;18.60;99.90;;;;;;5007757;28;20077;-46
2023/09/12 07:37:33;;;;;;;117.10;72.22;;;18.60;99.90;;;;;;5043210;28;20041;-44
2023/09/12 07:39:59;;;;;;;116.38;72.53;;;18.70;99.90;;;;;;5025011;28;20129;-47
2023/09/12 07:42:25;;;;;;;114.28;72.15;;;18.70;99.90;;;;;;5042438;28;20049;-47
2023/09/12 07:44:50;;;;;;;113.05;71.32;;;18.70;99.90;;;;;;5042765;28;20044;-44
2023/09/12 07:47:16;;;;;;;104.72;70.95;;;18.90;99.90;;;;;;5040875;28;20470;-46
2023/09/12 07:49:42;;;;;;;117.97;74.45;;;18.90;99.90;;;;;;5042823;28;20076;-45
2023/09/12 07:52:07;;;;;;;131.35;76.05;;;19.10;99.90;;;;;;5044891;28;20330;-45
2023/09/12 07:54:33;;;;;;;127.50;75.43;;;19.20;99.90;;;;;;5042096;28;20102;-47
2023/09/12 07:56:59;;;;;;;119.30;75.78;;;19.40;99.90;;;;;;5042199;28;20120;-46
2023/09/12 07:59:25;;;;;;;119.15;76.18;;;19.60;99.90;;;;;;5042507;28;20036;-45
2023/09/12 08:01:53;;;;;;;113.20;75.55;;;19.70;99.90;;;;;;5042313;28;20125;-47
2023/09/12 08:04:19;;;;;;;106.07;74.05;;;19.90;99.90;;;;;;5024120;28;20044;-46
2023/09/12 08:06:45;;;;;;;107.75;74.95;;;20.00;99.90;;;;;;5011686;28;20057;-44
2023/09/12 08:09:10;;;;;;;109.45;75.07;;;20.10;99.90;;;;;;5043188;28;20207;-44
2023/09/12 08:11:36;;;;;;;116.45;79.43;;;20.10;99.90;;;;;;5043072;28;20537;-44
2023/09/12 08:14:02;;;;;;;134.85;91.82;;;20.10;99.90;;;;;;5042338;28;20411;-47
2023/09/12 08:16:27;;;;;;;150.10;99.40;;;20.00;99.90;;;;;;5024379;28;20124;-44
2023/09/12 08:18:53;;;;;;;171.02;115.32;;;20.00;99.90;;;;;;5038722;28;20498;-44
2023/09/12 08:21:18;;;;;;;215.15;142.98;;;20.00;99.90;;;;;;5041286;28;20439;-44
2023/09/12 08:23:44;;;;;;;190.98;131.38;;;20.00;99.90;;;;;;5042000;28;20150;-46
2023/09/12 08:26:11;;;;;;;170.63;120.20;;;20.00;99.90;;;;;;5042078;28;20033;-47
2023/09/12 08:28:36;;;;;;;165.95;119.38;;;20.10;99.90;;;;;;5024527;28;20053;-43
2023/09/12 08:31:02;;;;;;;160.60;116.25;;;20.10;99.90;;;;;;5042056;28;20522;-46
2023/09/12 08:33:28;;;;;;;170.13;115.60;;;20.20;99.90;;;;;;5023159;28;20037;-47
2023/09/12 08:35:53;;;;;;;151.98;108.32;;;20.30;99.90;;;;;;5041707;28;20434;-43
2023/09/12 08:38:19;;;;;;;130.63;98.05;;;20.30;99.90;;;;;;5041387;28;20537;-44
2023/09/12 08:40:50;;;;;;;133.98;99.47;;;20.40;99.90;;;;;;5023079;28;20044;-47
2023/09/12 08:43:16;;;;;;;127.20;93.22;;;20.50;99.90;;;;;;5041580;28;20044;-43
2023/09/12 08:45:44;;;;;;;110.88;83.03;;;20.60;99.90;;;;;;5007657;28;20049;-45
2023/09/12 08:48:11;;;;;;;102.30;80.82;;;20.70;99.90;;;;;;5021790;28;20532;-44
2023/09/12 08:50:37;;;;;;;93.82;71.53;;;20.70;99.90;;;;;;5041934;28;20044;-43
2023/09/12 08:53:03;;;;;;;83.13;65.82;;;20.70;99.90;;;;;;5040765;28;20827;-46
2023/09/12 08:55:29;;;;;;;79.60;60.80;;;20.70;99.90;;;;;;5041310;28;20324;-44
2023/09/12 08:57:57;;;;;;;76.35;60.90;;;20.90;99.90;;;;;;5039719;28;20607;-45
2023/09/12 09:00:23;;;;;;;81.18;61.03;;;21.00;99.90;;;;;;5026378;28;20128;-45
2023/09/12 09:02:49;;;;;;;76.68;59.45;;;21.10;99.90;;;;;;5023296;28;20052;-43
2023/09/12 09:05:17;;;;;;;71.25;58.20;;;21.20;99.90;;;;;;5024034;28;20045;-45
2023/09/12 09:07:44;;;;;;;66.22;55.53;;;21.40;99.90;;;;;;5023151;28;20132;-44
2023/09/12 09:10:17;;;;;;;67.53;56.22;;;21.60;99.90;;;;;;5041082;28;20065;-46
2023/09/12 09:12:47;;;;;;;69.18;55.75;;;21.70;99.90;;;;;;5039941;28;20040;-48
2023/09/12 09:15:29;;;;;;;59.45;50.55;;;22.00;99.90;;;;;;5040875;28;20037;-48
2023/09/12 09:18:00;;;;;;;58.70;50.03;;;22.20;99.90;;;;;;5038604;28;20281;-45
2023/09/12 09:20:29;;;;;;;54.97;48.97;;;22.40;99.90;;;;;;5004777;28;20487;-45
2023/09/12 09:23:01;;;;;;;55.15;48.20;;;22.80;99.90;;;;;;5022399;28;20036;-47
2023/09/12 09:25:27;;;;;;;54.15;48.20;;;23.10;99.90;;;;;;5038832;28;20055;-46
2023/09/12 09:27:53;;;;;;;49.92;44.55;;;23.40;99.90;;;;;;5040072;28;20055;-45
2023/09/12 09:30:41;;;;;;;48.35;43.58;;;23.70;99.90;;;;;;5021858;28;20221;-44
2023/09/12 09:33:07;;;;;;;48.63;42.75;;;23.70;99.90;;;;;;5037934;28;20473;-46
2023/09/12 09:35:32;;;;;;;49.78;41.95;;;23.60;99.90;;;;;;5002169;28;20040;-48
2023/09/12 09:37:58;;;;;;;47.97;40.63;;;23.50;99.90;;;;;;5018756;28;20059;-44
2023/09/12 09:40:24;;;;;;;54.00;43.33;;;23.40;99.90;;;;;;5038546;28;20881;-47
2023/09/12 09:42:54;;;;;;;46.33;41.40;;;23.40;99.90;;;;;;5022475;28;20055;-48
2023/09/12 09:45:21;;;;;;;46.30;40.78;;;23.30;99.90;;;;;;5022791;28;20448;-45
2023/09/12 09:47:48;;;;;;;44.17;39.20;;;23.30;99.90;;;;;;5019797;28;20132;-44
2023/09/12 09:50:15;;;;;;;46.75;40.88;;;23.50;99.90;;;;;;5036071;28;20059;-47
2023/09/12 09:52:40;;;;;;;43.15;38.53;;;23.60;99.90;;;;;;5019979;28;20123;-44
2023/09/12 09:55:07;;;;;;;40.95;36.85;;;23.70;99.90;;;;;;5041445;28;20124;-45
2023/09/12 09:57:38;;;;;;;38.35;34.30;;;23.80;99.90;;;;;;5019863;28;20049;-45
2023/09/12 10:00:08;;;;;;;39.75;35.55;;;23.60;99.90;;;;;;5015516;28;20097;-45
2023/09/12 10:02:36;;;;;;;41.17;36.42;;;23.60;99.90;;;;;;5019267;28;20041;-43
2023/09/12 10:05:05;;;;;;;43.55;39.05;;;23.60;99.90;;;;;;5039264;28;20589;-47
2023/09/12 10:07:33;;;;;;;41.00;36.47;;;23.50;99.90;;;;;;5045543;28;20124;-45
2023/09/12 10:10:02;;;;;;;40.35;36.13;;;23.40;99.90;;;;;;5010600;28;20096;-46
2023/09/12 10:12:31;;;;;;;37.80;33.78;;;23.50;99.90;;;;;;5044192;28;20056;-49
2023/09/12 10:15:01;;;;;;;35.58;31.67;;;23.60;99.90;;;;;;5026065;28;20581;-45
2023/09/12 10:17:34;;;;;;;36.40;30.80;;;24.00;99.90;;;;;;5045171;28;20333;-48
2023/09/12 10:20:09;;;;;;;33.88;29.77;;;24.30;99.90;;;;;;5044550;28;20609;-47
2023/09/12 10:22:40;;;;;;;33.30;29.75;;;24.50;99.90;;;;;;5043669;28;20041;-46
2023/09/12 10:25:07;;;;;;;30.23;26.53;;;24.50;99.90;;;;;;5043817;28;20348;-46
2023/09/12 10:27:34;;;;;;;28.67;25.60;;;24.50;99.90;;;;;;5010030;28;20109;-44
2023/09/12 10:30:01;;;;;;;24.95;22.38;;;24.60;99.90;;;;;;5026569;28;20037;-45
2023/09/12 10:32:30;;;;;;;19.58;17.67;;;24.50;99.90;;;;;;5043127;28;20048;-45
2023/09/12 10:34:58;;;;;;;17.67;15.88;;;24.40;99.90;;;;;;5020873;28;20076;-44
2023/09/12 10:37:26;;;;;;;21.42;19.08;;;24.40;99.90;;;;;;5044017;28;20090;-44
2023/09/12 10:39:56;;;;;;;19.65;17.38;;;24.40;99.90;;;;;;5025807;28;20052;-46
2023/09/12 10:42:24;;;;;;;20.63;17.70;;;24.60;99.90;;;;;;5015602;28;20064;-45
2023/09/12 10:44:51;;;;;;;22.25;17.55;;;24.40;99.90;;;;;;5025640;28;20662;-44
2023/09/12 10:47:17;;;;;;;20.45;18.35;;;24.70;99.90;;;;;;5007760;28;20100;-44
2023/09/12 10:49:44;;;;;;;19.48;17.50;;;25.10;99.90;;;;;;5044170;28;20055;-43
2023/09/12 10:52:09;;;;;;;19.13;16.52;;;25.20;99.90;;;;;;5038323;28;20404;-46
2023/09/12 10:54:39;;;;;;;21.00;18.48;;;25.20;99.90;;;;;;5044215;28;20064;-46
2023/09/12 10:57:13;;;;;;;21.08;18.95;;;25.20;99.90;;;;;;5044222;28;20605;-44
2023/09/12 11:00:01;;;;;;;22.70;20.35;;;25.10;99.90;;;;;;5040599;28;20083;-45
2023/09/12 11:02:32;;;;;;;22.80;20.42;;;25.10;99.90;;;;;;5024616;28;20051;-46
2023/09/12 11:05:06;;;;;;;19.90;17.77;;;25.00;99.90;;;;;;5051075;28;20040;-46
2023/09/12 11:07:35;;;;;;;15.32;13.82;;;24.80;99.90;;;;;;5043465;28;20394;-45
2023/09/12 11:10:16;;;;;;;18.90;17.00;;;24.70;99.90;;;;;;5030113;28;20125;-46
2023/09/12 11:12:43;;;;;;;19.58;16.02;;;24.80;99.90;;;;;;5021661;28;20122;-46
2023/09/12 11:15:12;;;;;;;22.90;20.15;;;24.80;99.90;;;;;;5044571;28;20449;-48
2023/09/12 11:17:48;;;;;;;25.25;21.85;;;24.80;99.90;;;;;;5044107;28;20043;-45
2023/09/12 11:20:16;;;;;;;24.95;22.20;;;24.70;99.90;;;;;;5043975;28;20116;-47
2023/09/12 11:22:46;;;;;;;27.60;21.10;;;24.50;99.90;;;;;;5042311;28;20087;-45
2023/09/12 11:25:16;;;;;;;24.42;21.83;;;24.40;99.90;;;;;;5025671;28;20049;-46
2023/09/12 11:27:51;;;;;;;24.27;21.98;;;24.40;99.90;;;;;;5024928;28;20070;-47
2023/09/12 11:30:24;;;;;;;22.58;19.73;;;24.20;99.90;;;;;;5025895;28;20475;-46
2023/09/12 11:32:53;;;;;;;22.85;20.33;;;24.30;99.90;;;;;;5024112;28;20048;-46
2023/09/12 11:35:23;;;;;;;21.83;19.15;;;24.30;99.90;;;;;;5022594;28;20041;-47
2023/09/12 11:37:50;;;;;;;22.55;19.85;;;24.40;99.90;;;;;;5043575;28;20045;-49
2023/09/12 11:40:24;;;;;;;21.77;19.50;;;24.50;99.90;;;;;;5024931;28;20412;-44
2023/09/12 11:42:50;;;;;;;24.40;21.15;;;24.40;99.90;;;;;;5018896;28;20060;-45
2023/09/12 11:45:21;;;;;;;22.13;19.88;;;24.30;99.90;;;;;;5043047;28;20036;-46
2023/09/12 11:47:47;;;;;;;19.70;17.13;;;24.40;99.90;;;;;;5037183;28;20132;-48
2023/09/12 11:50:35;;;;;;;19.67;17.10;;;24.30;99.90;;;;;;5020564;28;20771;-48
2023/09/12 11:53:11;;;;;;;17.02;14.63;;;24.30;99.90;;;;;;5040152;28;20107;-45
2023/09/12 11:55:51;;;;;;;18.27;15.88;;;24.40;99.90;;;;;;5008785;28;20083;-45
2023/09/12 11:58:17;;;;;;;21.40;19.13;;;24.40;99.90;;;;;;5042703;28;20049;-49
2023/09/12 12:00:54;;;;;;;25.00;19.83;;;24.50;99.90;;;;;;5035748;28;20041;-49
2023/09/12 12:03:25;;;;;;;23.10;19.65;;;24.50;99.90;;;;;;5050017;28;20088;-45
2023/09/12 12:05:51;;;;;;;21.20;18.92;;;24.50;99.90;;;;;;5051208;28;20507;-48
2023/09/12 12:08:18;;;;;;;18.65;16.75;;;24.50;99.90;;;;;;5050419;28;20401;-45
2023/09/12 12:10:48;;;;;;;19.80;17.50;;;24.40;99.90;;;;;;5046611;28;20052;-45
2023/09/12 12:13:18;;;;;;;19.95;17.88;;;24.40;99.90;;;;;;5039475;28;20518;-45
2023/09/12 12:15:44;;;;;;;21.50;19.20;;;24.30;99.90;;;;;;5038902;28;20037;-45
2023/09/12 12:18:10;;;;;;;18.25;16.27;;;24.20;99.90;;;;;;5025471;28;20488;-44
2023/09/12 12:20:36;;;;;;;18.50;16.55;;;24.30;99.90;;;;;;5025118;28;20400;-44
2023/09/12 12:23:01;;;;;;;20.25;18.25;;;24.40;99.90;;;;;;5024713;28;20111;-48